Date,TemperatureHighF,TemperatureAvgF,TemperatureLowF,DewpointHighF,DewpointAvgF,DewpointLowF,HumidityHigh,HumidityAvg,HumidityLow,PressureMaxIn,PressureMinIn,WindSpeedMaxMPH,WindSpeedAvgMPH,GustSpeedMaxMPH,PrecipitationSumIn
2013-1-1,57,50,41,56,46,37,96,87,69,30.21,29.94,8,1,8,0.17
2013-1-2,44,40,36,37,30,28,87,67,54,30.31,30.21,6,1,6,0.00
2013-1-3,46,41,37,32,30,27,76,64,50,30.42,30.28,5,0,5,0.01
2013-1-4,43,41,38,38,36,30,91,83,60,30.49,30.35,8,1,8,0.09
2013-1-5,54,43,34,41,37,32,93,79,61,30.37,30.21,5,0,5,0.01
2013-1-6,60,43,30,41,31,25,96,69,28,30.38,30.26,8,0,8,0.00
2013-1-7,58,44,30,46,35,28,93,72,45,30.32,30.04,6,0,6,0.00
2013-1-8,55,51,47,54,49,44,96,95,83,30.04,29.83,5,0,5,0.54
2013-1-9,62,55,48,57,53,47,96,93,80,30.03,29.85,7,1,7,1.76
2013-1-10,68,53,43,48,44,40,96,76,37,30.05,29.97,9,0,9,0.01
2013-1-11,70,56,40,65,52,38,96,87,69,30.03,29.82,9,0,9,0.00
2013-1-12,74,68,53,66,62,39,91,81,55,29.84,29.66,8,1,8,0.00
2013-1-13,56,48,38,40,32,27,67,54,36,30.17,29.84,11,2,11,0.00
2013-1-14,51,42,36,32,28,24,64,58,44,30.23,30.09,9,2,9,0.00
2013-1-15,43,38,36,36,32,24,92,80,62,30.23,30.09,10,1,10,0.02
2013-1-16,56,40,26,26,20,8,78,49,17,30.35,30.18,9,1,9,0.00
2013-1-17,67,46,31,37,30,23,85,59,24,30.47,30.29,7,0,7,0.00
2013-1-18,67,47,33,38,33,27,93,65,24,30.50,30.32,6,0,6,0.00
2013-1-19,69,50,35,48,40,33,96,72,35,30.32,30.15,8,0,10,0.00
2013-1-20,72,52,36,54,44,34,96,77,39,30.25,30.09,7,0,7,0.00
2013-1-21,73,55,40,54,46,39,96,76,40,30.23,30.14,5,0,5,0.00
2013-1-22,74,57,44,51,45,40,88,67,39,30.31,30.18,8,0,8,0.01
2013-1-23,76,57,43,58,50,42,96,80,46,30.34,30.20,8,0,8,0.00
2013-1-24,79,64,52,61,57,50,95,80,50,30.26,30.10,6,0,8,0.00
2013-1-25,80,69,58,61,59,55,94,73,48,30.16,30.01,7,1,9,0.00
2013-1-26,72,61,53,61,53,47,93,78,62,30.17,30.03,6,0,6,0.01
2013-1-27,79,69,56,64,62,54,95,78,58,30.10,29.95,11,2,11,0.01
2013-1-28,76,72,68,66,64,63,90,78,67,30.05,29.88,11,2,11,0.00
2013-1-29,84,72,58,66,54,22,82,58,25,29.88,29.51,14,2,14,0.00
2013-1-30,61,51,35,28,19,6,67,31,12,30.24,29.83,12,1,12,0.00
2013-1-31,69,47,29,33,24,12,80,50,11,30.31,30.17,6,1,10,0.00
2013-2-1,73,56,40,44,36,29,88,53,21,30.33,30.18,10,1,10,0.00
2013-2-2,77,57,40,54,45,38,94,69,36,30.27,30.15,8,0,8,0.00
2013-2-3,73,60,47,53,42,32,80,55,28,30.33,30.03,8,0,8,0.00
2013-2-4,76,63,53,59,55,50,92,77,49,30.03,29.80,8,0,8,0.00
2013-2-5,82,64,51,57,46,33,95,60,19,29.98,29.87,5,0,5,0.01
2013-2-6,77,65,58,61,58,53,94,79,50,30.00,29.84,9,0,9,0.06
2013-2-7,78,66,59,61,56,41,88,72,45,30.06,29.87,9,0,9,0.00
2013-2-8,72,59,45,47,36,25,80,47,18,30.23,30.06,8,1,8,0.00
2013-2-9,69,59,48,66,55,38,94,88,61,30.09,29.80,8,0,8,0.02
2013-2-10,70,64,58,65,42,24,92,50,22,30.01,29.76,9,1,9,0.02
2013-2-11,60,55,51,49,45,36,92,69,50,30.05,29.95,7,1,7,0.01
2013-2-12,73,60,51,57,44,20,95,65,18,30.03,29.81,10,0,10,0.03
2013-2-13,66,50,38,37,31,23,78,51,21,30.16,30.01,8,1,8,0.00
2013-2-14,71,50,34,40,35,31,91,61,25,30.14,30.00,6,0,9,0.00
2013-2-15,68,54,37,46,36,22,93,55,26,30.37,30.07,10,1,10,0.00
2013-2-16,67,51,32,30,26,19,73,41,20,30.46,30.23,9,0,9,0.00
2013-2-17,72,59,32,51,40,28,85,53,22,30.23,29.99,10,2,10,0.00
2013-2-18,82,68,56,61,48,24,85,53,23,30.06,29.84,10,1,10,0.00
2013-2-19,70,58,41,35,29,22,72,36,18,30.24,30.07,11,1,11,0.00
2013-2-20,68,60,52,64,53,30,92,79,35,30.10,29.66,9,1,9,0.03
2013-2-21,79,68,49,66,44,18,91,52,11,29.85,29.58,9,1,9,0.03
2013-2-22,62,52,46,40,35,28,71,53,30,30.02,29.85,8,1,8,0.00
2013-2-23,76,54,41,40,34,28,75,48,21,30.06,29.85,6,0,6,0.00
2013-2-24,70,56,39,58,48,36,91,75,51,29.92,29.62,6,1,9,0.00
2013-2-25,67,56,50,58,34,12,95,50,12,29.88,29.58,13,2,19,0.01
2013-2-26,69,42,0,29,16,0,36,16,16,29.96,29.84,9,1,9,0.00
2013-2-27,66,40,0,35,17,0,38,17,20,30.21,29.87,11,1,11,0.00
2013-2-28,62,36,0,29,15,0,40,17,18,30.33,30.18,7,0,8,0.00
2013-3-1,72,61,57,27,23,17,27,23,13,30.29,30.10,8,0,8,0.00
2013-3-2,66,61,52,26,23,12,35,23,19,30.42,30.25,9,1,9,0.00
2013-3-3,76,55,0,36,24,0,38,22,17,30.27,29.95,14,1,14,0.00
2013-3-4,86,41,0,53,24,0,78,19,19,29.95,29.71,10,1,10,0.00
2013-3-5,68,38,0,32,11,0,37,12,11,30.35,29.78,13,1,13,0.00
2013-3-6,66,57,47,24,17,8,35,21,12,30.44,30.21,8,0,8,0.00
2013-3-7,75,61,54,53,38,22,69,45,28,30.23,30.09,8,1,8,0.00
2013-3-8,63,63,61,60,57,50,90,82,69,30.13,29.98,5,0,5,0.00
2013-3-9,63,63,63,60,60,60,90,90,90,30.02,29.65,0,0,0,0.00
2013-3-10,69,64,61,60,42,28,90,51,24,30.13,29.66,10,1,13,0.00
2013-3-11,70,62,48,32,27,16,44,27,16,30.20,30.00,8,1,8,0.00
2013-3-12,79,49,0,41,21,-12,59,16,13,30.20,30.06,10,1,10,0.00
2013-3-13,78,33,0,45,17,0,60,13,19,30.43,30.21,4,0,7,0.00
2013-3-14,79,50,0,54,32,0,78,27,24,30.38,30.21,9,1,9,0.00
2013-3-15,82,41,0,55,23,0,79,18,20,30.25,29.99,12,1,12,0.00
2013-3-16,84,44,0,59,31,0,87,28,29,30.01,29.74,12,2,12,0.00
2013-3-17,85,64,0,62,48,0,69,41,38,29.83,29.64,7,0,7,0.00
2013-3-18,94,83,73,65,50,26,75,35,9,29.92,29.72,7,1,7,0.00
2013-3-19,80,45,0,64,37,0,66,37,50,29.98,29.82,8,1,8,0.00
2013-3-20,73,44,0,52,26,0,76,25,24,30.21,29.93,14,1,14,0.00
2013-3-21,76,47,0,57,37,0,70,36,50,30.03,29.63,11,2,11,0.00
2013-3-22,87,78,72,68,59,55,83,53,38,29.74,29.62,7,2,7,0.00
2013-3-23,82,78,58,61,59,38,77,52,48,29.78,29.58,6,0,6,0.00
2013-3-24,77,64,42,59,38,15,53,40,18,30.15,29.69,13,1,13,0.00
2013-3-25,61,47,34,28,19,7,74,39,12,30.37,30.15,10,1,10,0.00
2013-3-26,67,50,34,27,21,11,71,38,12,30.48,30.27,8,0,8,0.00
2013-3-27,68,58,35,49,40,26,84,54,37,30.32,30.15,9,2,10,0.00
2013-3-28,71,65,57,58,55,48,84,69,58,30.20,30.11,10,1,10,0.00
2013-3-29,78,70,54,59,56,52,94,62,43,30.17,30.04,7,1,12,0.00
2013-3-30,85,73,65,63,60,56,86,65,39,30.11,29.88,6,1,9,0.00
2013-3-31,85,70,61,65,62,59,94,79,44,29.96,29.81,9,0,9,0.13
2013-4-1,87,71,61,66,61,56,95,75,38,30.04,29.88,9,0,10,0.00
2013-4-2,78,70,63,65,62,56,92,79,59,30.00,29.80,15,0,15,0.05
2013-4-3,66,54,50,56,51,45,94,90,81,30.13,29.74,13,1,13,1.16
2013-4-4,65,54,48,46,43,40,85,68,42,30.21,30.09,8,1,8,0.01
2013-4-5,73,58,39,50,44,37,94,64,37,30.27,30.06,7,0,7,0.00
2013-4-6,82,66,51,58,53,46,91,67,38,30.08,29.84,11,1,11,0.00
2013-4-7,86,70,59,65,60,56,92,73,43,29.92,29.75,9,1,9,0.00
2013-4-8,77,70,67,66,63,60,87,79,66,29.84,29.67,7,0,7,0.00
2013-4-9,88,76,69,69,66,63,86,72,47,29.72,29.57,8,0,8,0.00
2013-4-10,74,61,48,68,53,42,91,77,65,29.92,29.64,12,1,12,0.11
2013-4-11,68,55,45,45,40,36,79,59,32,29.98,29.80,8,0,8,0.02
2013-4-12,82,62,43,52,44,36,94,59,20,30.00,29.84,7,0,7,0.00
2013-4-13,79,64,49,60,52,46,94,67,39,29.96,29.75,7,0,7,0.00
2013-4-14,86,69,55,68,60,52,95,76,39,29.83,29.61,5,0,8,0.00
2013-4-15,89,77,68,68,64,60,89,68,41,29.81,29.69,9,0,9,0.00
2013-4-16,85,75,65,70,66,61,91,73,53,29.89,29.78,5,0,5,0.00
2013-4-17,82,75,72,72,69,66,93,82,62,29.87,29.66,8,0,8,0.00
2013-4-18,75,64,53,69,54,36,92,72,45,30.06,29.64,12,1,12,0.27
2013-4-19,71,57,44,38,31,20,71,41,16,30.29,30.06,10,0,10,0.00
2013-4-20,76,57,37,47,36,22,92,53,17,30.23,29.98,6,0,6,0.01
2013-4-21,82,65,50,58,52,45,88,64,36,30.13,29.98,6,0,6,0.00
2013-4-22,84,70,56,62,58,54,94,69,39,30.10,29.86,8,0,8,0.00
2013-4-23,80,69,55,67,60,43,85,73,51,30.06,29.85,7,0,8,0.00
2013-4-24,62,54,46,44,38,35,81,57,37,30.24,30.06,14,1,14,0.02
2013-4-25,70,61,56,50,43,39,65,52,38,30.31,30.17,11,0,11,0.00
2013-4-26,78,69,60,68,61,46,94,77,58,30.19,30.01,7,0,7,0.00
2013-4-27,81,72,66,68,66,63,92,83,60,30.09,29.92,7,0,7,0.07
2013-4-28,84,71,58,65,61,57,96,75,46,30.01,29.86,6,0,7,0.01
2013-4-29,86,71,64,67,64,61,94,80,46,29.93,29.77,8,0,8,0.14
2013-4-30,83,70,63,68,64,62,96,82,50,29.84,29.72,5,0,5,0.00
2013-5-1,87,77,67,69,66,63,93,70,48,29.90,29.78,5,0,5,0.00
2013-5-2,75,57,50,67,48,36,93,71,57,30.33,29.81,11,1,11,0.22
2013-5-3,70,59,45,38,31,22,61,38,18,30.34,30.08,12,1,12,0.22
2013-5-4,82,60,40,48,38,30,91,53,16,30.10,29.88,1,0,10,0.00
2013-5-5,81,66,50,48,43,35,82,47,20,30.14,29.97,9,0,9,0.44
2013-5-6,77,63,48,54,49,44,93,64,33,30.15,29.98,4,0,4,0.00
2013-5-7,86,68,50,60,52,42,94,62,25,30.09,29.92,6,0,6,0.00
2013-5-8,84,72,63,66,61,57,89,70,46,30.01,29.88,6,0,6,0.00
2013-5-9,78,73,63,71,67,60,90,80,73,29.98,29.83,7,0,7,0.35
2013-5-10,82,70,62,69,63,59,95,81,52,30.01,29.83,11,0,11,0.31
2013-5-11,82,71,62,64,59,52,92,68,44,30.14,29.98,9,0,9,0.01
2013-5-12,80,68,56,58,52,44,84,59,32,30.23,30.10,7,0,7,0.00
2013-5-13,85,70,52,60,54,46,93,62,26,30.26,30.14,6,0,6,0.00
2013-5-14,85,72,58,66,61,56,93,70,47,30.21,30.00,8,0,8,0.00
2013-5-15,87,76,70,72,68,65,92,78,54,30.09,29.83,9,0,9,0.01
2013-5-16,92,79,71,73,69,66,85,72,44,29.87,29.70,5,0,7,0.00
2013-5-17,94,81,74,75,70,66,86,71,45,29.90,29.78,5,0,5,0.00
2013-5-18,94,81,72,71,67,61,91,66,38,29.92,29.81,8,0,8,0.00
2013-5-19,92,80,72,73,68,64,86,68,46,29.86,29.72,9,0,9,0.00
2013-5-20,93,81,70,73,69,64,93,68,45,29.84,29.69,6,0,6,0.00
2013-5-21,88,80,71,72,70,62,89,72,53,29.86,29.69,10,0,10,0.00
2013-5-22,88,76,62,72,65,57,91,69,53,29.92,29.79,5,0,5,0.00
2013-5-23,90,80,73,73,70,68,89,73,50,30.01,29.86,4,0,4,0.00
2013-5-24,78,74,69,74,70,66,95,89,79,30.10,30.00,3,0,3,2.47
2013-5-25,78,73,69,73,70,67,96,90,74,30.15,30.01,1,0,1,1.18
2013-5-26,84,76,70,74,70,65,93,81,60,30.08,29.97,1,0,1,0.01
2013-5-27,88,80,71,75,70,66,91,72,56,30.03,29.84,1,0,1,0.00
2013-5-28,89,81,73,73,70,67,86,70,53,29.92,29.76,1,0,1,0.00
2013-5-29,85,78,73,74,70,68,88,76,62,29.89,29.72,6,0,6,0.00
2013-5-30,89,81,75,75,71,70,85,72,59,29.84,29.75,4,0,4,0.00
2013-5-31,90,81,74,75,72,70,90,75,56,29.88,29.75,1,0,6,0.00
2013-6-1,93,83,76,75,72,70,86,71,47,29.90,29.79,6,0,6,0.01
2013-6-2,84,76,66,73,66,58,95,73,44,30.05,29.90,7,0,7,0.20
2013-6-3,89,76,64,71,65,60,94,70,39,29.98,29.83,6,0,6,0.00
2013-6-4,91,79,68,72,67,61,94,69,38,29.92,29.80,3,0,3,0.00
2013-6-5,91,80,67,71,67,61,94,69,40,29.89,29.73,6,0,6,0.00
2013-6-6,90,79,67,72,67,62,95,69,40,29.92,29.76,8,0,8,0.00
2013-6-7,80,73,67,69,64,62,91,75,61,29.98,29.91,6,0,6,0.15
2013-6-8,88,78,61,73,67,59,95,71,49,29.92,29.78,7,0,7,0.01
2013-6-9,88,78,74,76,71,63,94,78,54,29.95,29.84,4,0,4,0.03
2013-6-10,91,80,70,73,70,66,94,73,45,29.99,29.89,4,0,4,0.00
2013-6-11,91,78,72,74,70,65,94,79,48,30.03,29.96,9,0,9,0.01
2013-6-12,91,79,70,76,72,67,95,79,50,30.05,29.96,6,0,6,0.01
2013-6-13,93,78,73,76,72,69,94,83,48,30.06,29.93,7,0,7,0.04
2013-6-14,88,79,73,78,73,70,94,83,58,30.00,29.89,4,0,4,0.02
2013-6-15,89,81,76,76,73,69,94,78,54,29.99,29.89,4,0,4,0.00
2013-6-16,93,83,74,76,71,66,93,70,44,30.01,29.89,6,0,6,0.00
2013-6-17,94,84,76,74,71,66,89,68,42,30.00,29.84,7,0,7,0.00
2013-6-18,92,83,74,73,70,63,92,68,41,30.00,29.87,5,0,5,0.00
2013-6-19,94,84,75,73,70,62,90,65,39,29.98,29.89,6,0,6,0.00
2013-6-20,94,83,73,73,70,60,91,67,34,30.06,29.94,9,0,9,0.00
2013-6-21,94,84,76,74,68,57,91,63,32,30.07,29.96,7,0,7,0.00
2013-6-22,95,84,75,72,68,56,89,62,32,30.05,29.89,7,0,7,0.00
2013-6-23,93,83,76,73,68,58,89,63,34,29.98,29.88,6,0,6,0.00
2013-6-24,96,84,75,73,69,62,90,65,35,30.03,29.89,5,0,7,0.00
2013-6-25,96,85,76,72,69,61,87,62,33,30.01,29.87,9,0,9,0.00
2013-6-26,97,85,76,73,69,62,84,62,35,29.98,29.86,7,0,7,0.00
2013-6-27,96,84,76,72,67,53,85,61,25,30.03,29.89,4,0,7,0.00
2013-6-28,98,86,73,73,67,56,91,56,26,30.01,29.81,5,0,5,0.00
2013-6-29,104,88,72,72,64,53,88,51,20,29.89,29.72,5,0,5,0.00
2013-6-30,84,77,70,73,68,61,94,75,49,29.97,29.80,0,0,0,0.11
2013-7-1,91,78,68,68,59,50,88,55,28,30.00,29.87,0,0,0,0.00
2013-7-2,90,76,64,62,56,46,82,54,24,30.07,29.95,0,0,0,0.00
2013-7-3,95,78,63,63,52,38,71,46,15,30.03,29.88,0,0,0,0.00
2013-7-4,93,80,65,70,62,49,92,58,24,30.00,29.87,0,0,0,0.00
2013-7-5,95,82,67,71,64,53,93,58,27,29.98,29.83,0,0,0,0.00
2013-7-6,96,83,70,72,66,56,93,61,30,29.94,29.81,0,0,0,0.00
2013-7-7,96,82,73,74,71,65,92,71,40,29.98,29.87,0,0,0,0.00
2013-7-8,87,80,76,74,71,67,88,75,56,30.11,29.98,0,0,0,0.00
2013-7-9,95,84,72,75,70,63,94,68,37,30.15,30.00,0,0,0,0.00
2013-7-10,95,84,73,74,70,61,93,65,33,30.10,29.92,0,0,0,0.00
2013-7-11,95,84,72,73,68,59,92,61,32,30.01,29.87,0,0,0,0.00
2013-7-12,98,85,72,74,67,54,93,60,25,29.97,29.86,0,0,0,0.00
2013-7-13,100,85,71,71,64,51,91,54,23,29.98,29.83,0,0,0,0.00
2013-7-14,99,80,72,72,67,58,89,67,27,29.91,29.83,0,0,0,0.21
2013-7-15,84,76,70,74,71,67,94,87,66,30.01,29.87,0,0,0,0.20
2013-7-16,85,75,72,77,72,70,95,91,67,30.11,30.00,0,0,0,0.32
2013-7-17,85,74,71,75,71,69,95,91,63,30.17,30.09,0,0,0,0.17
2013-7-18,91,78,71,75,70,65,95,79,44,30.15,30.00,0,0,0,0.00
2013-7-19,93,80,70,75,69,64,95,72,41,30.07,29.89,0,0,0,0.00
2013-7-20,93,82,71,74,69,62,94,70,40,30.00,29.84,0,0,0,0.00
2013-7-21,91,82,74,80,73,67,94,75,50,29.97,29.87,6,0,6,8.51
2013-7-22,95,87,76,75,72,66,93,64,40,29.99,29.88,8,0,8,6.97
2013-7-23,96,86,76,74,69,60,87,60,33,30.02,29.87,8,0,8,0.00
2013-7-24,95,85,75,74,71,66,90,66,39,30.00,29.86,5,0,5,0.00
2013-7-25,96,84,74,75,70,63,94,66,38,30.03,29.94,7,0,7,0.00
2013-7-26,95,84,74,74,71,64,93,69,37,30.03,29.87,6,0,6,0.00
2013-7-27,88,82,75,75,71,67,92,70,53,30.00,29.86,5,0,5,0.00
2013-7-28,95,84,74,75,70,65,85,64,40,29.95,29.84,6,0,6,0.00
2013-7-29,98,86,76,73,69,60,88,61,30,30.04,29.92,6,0,6,0.00
2013-7-30,98,85,77,74,69,58,88,62,29,30.09,29.95,6,0,6,0.00
2013-7-31,99,85,74,72,66,53,90,59,22,30.10,29.92,2,0,5,0.00
2013-8-1,100,86,73,73,68,59,91,59,28,30.04,29.88,4,0,4,0.00
2013-8-2,99,85,71,73,67,59,89,57,30,29.99,29.86,6,0,6,0.00
2013-8-3,99,86,75,73,69,61,91,62,31,30.02,29.90,6,0,6,0.00
2013-8-4,97,86,76,75,70,64,91,64,36,30.07,29.91,7,0,7,0.00
2013-8-5,101,86,74,73,68,57,91,59,24,30.04,29.87,6,0,6,0.00
2013-8-6,101,87,76,74,68,56,89,58,24,29.96,29.80,7,0,7,0.00
2013-8-7,101,87,76,73,68,55,87,59,24,29.94,29.78,8,0,8,0.00
2013-8-8,101,87,77,74,67,52,81,57,24,29.91,29.77,8,0,8,0.00
2013-8-9,100,85,73,72,67,50,92,60,23,29.97,29.84,5,0,5,0.00
2013-8-10,99,83,73,76,71,63,93,71,34,30.04,29.92,7,0,7,0.07
2013-8-11,97,82,74,76,71,61,95,73,34,30.07,29.95,6,0,6,0.01
2013-8-12,97,84,72,72,69,63,93,65,34,30.07,29.93,0,0,0,0.00
2013-8-13,99,85,74,74,69,59,93,62,29,30.05,29.87,0,0,0,0.00
2013-8-14,100,85,73,72,68,57,91,61,25,30.00,29.85,0,0,0,0.00
2013-8-15,100,84,74,73,68,57,88,61,27,30.01,29.87,0,0,0,0.00
2013-8-16,96,83,72,74,68,56,93,64,35,30.03,29.89,0,0,0,0.00
2013-8-17,96,85,70,70,61,50,89,49,25,30.04,29.90,0,0,0,0.00
2013-8-18,96,80,67,69,61,55,81,55,26,30.04,29.95,0,0,0,0.00
2013-8-19,95,82,67,68,63,54,90,56,30,30.06,29.90,0,0,0,0.00
2013-8-20,96,80,68,71,67,58,93,67,29,30.03,29.93,0,0,0,0.00
2013-8-21,98,81,71,73,68,64,89,68,35,30.07,29.97,0,0,0,0.00
2013-8-22,96,83,70,74,69,64,94,67,38,30.08,29.90,0,0,0,0.00
2013-8-23,98,84,73,74,68,58,92,62,30,30.03,29.88,0,0,0,0.00
2013-8-24,100,85,72,71,67,59,90,60,27,30.04,29.90,0,0,0,0.00
2013-8-25,97,83,72,71,68,62,88,62,34,30.07,29.97,0,0,0,0.00
2013-8-26,90,78,73,74,71,67,94,80,50,30.10,30.03,0,0,0,0.52
2013-8-27,88,79,72,74,71,68,95,80,54,30.10,30.01,0,0,0,0.00
2013-8-28,96,81,71,75,69,62,95,70,36,30.11,29.98,0,0,0,0.00
2013-8-29,97,82,72,74,69,58,94,66,33,30.10,29.94,0,0,0,0.00
2013-8-30,100,84,72,71,67,58,88,59,28,30.03,29.87,0,0,0,0.00
2013-8-31,99,84,72,71,68,62,91,61,32,29.95,29.81,0,0,0,0.00
2013-9-1,99,84,72,73,68,60,93,63,29,29.92,29.80,0,0,0,0.00
2013-9-2,100,85,73,74,68,59,93,62,26,29.98,29.81,0,0,0,0.00
2013-9-3,100,83,70,71,66,56,92,60,25,30.01,29.86,0,0,0,0.00
2013-9-4,98,82,75,77,70,62,86,69,33,30.06,29.93,0,0,0,0.05
2013-9-5,97,79,70,79,70,64,94,76,36,30.09,29.98,0,0,0,0.15
2013-9-6,95,81,72,74,70,64,94,73,38,30.09,29.93,0,0,0,0.00
2013-9-7,96,79,72,75,71,64,93,79,36,30.03,29.89,0,0,0,0.25
2013-9-8,88,76,72,76,71,67,94,84,57,29.98,29.88,0,0,0,0.18
2013-9-9,93,77,70,74,70,66,95,81,42,29.98,29.90,0,0,0,0.04
2013-9-10,92,76,70,75,71,68,95,86,49,30.04,29.97,0,0,0,0.34
2013-9-11,95,80,72,76,70,59,95,75,32,30.08,29.97,0,0,0,0.01
2013-9-12,95,80,71,74,68,57,94,72,31,30.06,29.90,0,0,0,0.00
2013-9-13,97,81,70,71,65,55,94,62,26,29.98,29.81,0,0,0,0.00
2013-9-14,96,79,68,72,67,61,93,70,34,29.93,29.83,0,0,0,0.01
2013-9-15,93,79,71,75,70,67,94,77,45,30.00,29.90,0,0,0,0.00
2013-9-16,89,77,71,74,71,68,95,84,55,30.04,29.94,0,0,0,0.47
2013-9-17,88,78,71,78,72,68,96,83,57,30.04,29.93,0,0,0,0.01
2013-9-18,93,79,72,76,71,67,95,79,45,30.01,29.87,0,0,0,0.01
2013-9-19,93,78,73,78,73,70,95,86,50,29.95,29.81,0,0,0,0.30
2013-9-20,79,75,70,77,74,68,95,94,92,29.87,29.75,0,0,0,43.39
2013-9-21,85,73,62,68,62,52,94,71,40,29.91,29.81,0,0,0,0.00
2013-9-22,86,69,58,57,52,44,82,60,24,29.90,29.77,0,0,0,0.00
2013-9-23,90,70,56,62,56,48,92,67,27,29.84,29.74,0,0,0,0.00
2013-9-24,96,75,62,67,60,53,89,64,25,29.92,29.81,0,0,0,0.00
2013-9-25,95,77,64,67,62,54,90,64,29,29.90,29.78,0,0,0,0.00
2013-9-26,91,77,64,72,66,54,94,70,38,29.90,29.80,0,0,0,0.00
2013-9-27,92,79,74,76,73,71,94,84,57,29.91,29.83,0,0,0,0.00
2013-9-28,92,81,76,78,74,71,94,81,53,29.97,29.85,0,0,0,3.44
2013-9-29,78,72,67,74,68,65,96,86,71,30.04,29.93,0,0,0,129.68
2013-9-30,90,72,62,66,62,52,95,75,29,29.95,29.81,0,0,0,0.00
2013-10-1,92,77,66,74,70,60,95,80,45,29.92,29.82,0,0,0,0.00
2013-10-2,91,80,75,75,72,68,94,79,50,29.96,29.84,0,0,0,0.11
2013-10-3,90,80,74,73,71,67,93,75,51,29.93,29.82,0,0,0,0.00
2013-10-4,92,79,70,72,70,69,94,76,49,29.92,29.82,0,0,0,0.00
2013-10-5,88,76,63,72,66,46,94,73,46,30.04,29.87,0,0,0,0.00
2013-10-6,81,64,54,55,48,38,94,60,24,30.14,30.02,0,0,0,0.20
2013-10-7,85,64,49,54,48,34,92,64,17,30.17,30.04,0,0,0,0.00
2013-10-8,85,65,52,56,52,42,94,68,25,30.09,29.98,0,0,0,0.00
2013-10-9,85,67,53,64,58,51,95,75,43,30.06,29.93,0,0,0,0.00
2013-10-10,86,72,61,68,64,59,94,76,49,30.03,29.87,0,0,0,0.00
2013-10-11,89,77,70,74,70,65,89,79,57,29.93,29.82,0,0,0,0.00
2013-10-12,91,79,74,74,72,70,93,81,50,30.00,29.89,0,0,0,0.00
2013-10-13,77,72,66,73,70,64,96,93,85,30.16,30.00,0,0,0,8.56
2013-10-14,84,75,72,76,71,69,96,90,70,30.09,29.91,0,0,0,98.98
2013-10-15,85,75,64,72,69,59,95,83,56,29.98,29.87,0,0,0,19.26
2013-10-16,65,58,56,59,56,54,96,92,82,30.07,29.93,0,0,0,98.97
2013-10-17,75,59,52,58,53,48,93,82,44,30.13,29.98,0,0,0,27.96
2013-10-18,73,63,55,65,59,53,94,88,71,30.00,29.88,0,0,0,99.06
2013-10-19,71,58,49,63,48,38,95,71,32,30.19,29.98,0,0,0,71.23
2013-10-20,76,57,45,54,48,43,95,74,33,30.10,29.91,0,0,0,43.52
2013-10-21,79,66,57,68,61,54,96,84,66,30.05,29.89,0,0,0,0.00
2013-10-22,78,62,51,56,48,35,88,63,24,30.15,30.04,0,0,0,0.00
2013-10-23,83,60,46,53,47,39,93,68,23,30.18,30.09,0,0,0,0.00
2013-10-24,83,62,47,57,52,45,95,74,27,30.23,30.12,0,0,0,0.00
2013-10-25,82,64,51,63,57,50,96,79,46,30.30,30.18,0,0,0,0.00
2013-10-26,83,70,62,67,62,60,92,77,49,30.21,30.06,0,0,0,0.00
2013-10-27,76,68,63,70,65,61,95,88,70,30.10,29.99,0,0,0,0.19
2013-10-28,86,71,66,69,65,62,94,83,55,30.09,29.96,0,0,0,0.00
2013-10-29,83,75,69,71,67,65,93,79,58,30.07,29.95,0,0,0,0.00
2013-10-30,84,77,72,74,71,68,93,84,65,30.03,29.79,0,0,0,0.00
2013-10-31,85,72,55,72,61,40,95,73,22,29.89,29.78,0,0,0,0.00
2013-11-1,86,64,50,63,51,39,94,67,24,30.05,29.82,0,0,0,56.64
2013-11-2,76,60,49,46,43,32,85,56,20,30.29,30.05,0,0,0,0.00
2013-11-3,73,55,43,53,44,33,94,72,24,30.23,30.02,0,0,0,0.00
2013-11-4,72,64,58,63,58,52,91,82,69,30.06,29.94,0,0,0,0.00
2013-11-5,82,71,63,69,66,60,95,85,58,30.01,29.89,0,0,0,0.00
2013-11-6,77,65,52,69,58,43,93,78,61,30.31,29.96,0,0,0,0.00
2013-11-7,67,54,46,45,39,31,75,60,30,30.44,30.31,0,0,0,0.00
2013-11-8,66,56,49,50,43,35,83,64,33,30.38,30.17,0,0,0,0.00
2013-11-9,71,60,53,59,54,45,92,79,60,30.19,30.10,0,0,0,0.00
2013-11-10,63,52,0,59,49,0,88,74,87,30.29,30.16,0,0,0,0.00
2013-11-11,78,29,0,57,23,0,62,24,40,30.26,30.14,0,0,0,0.00
2013-11-12,70,62,55,57,50,43,78,66,62,30.61,30.23,0,0,0,0.00
2013-11-13,59,53,40,43,31,18,65,45,23,30.63,30.40,0,0,0,0.00
2013-11-14,64,41,0,44,21,0,92,31,30,30.40,30.04,0,0,0,0.00
2013-11-15,78,43,0,58,34,0,91,36,46,30.06,29.86,0,0,0,0.00
2013-11-16,80,75,69,68,63,54,92,67,61,29.92,29.75,0,0,0,0.00
2013-11-17,87,77,64,70,67,62,94,72,53,29.94,29.78,0,0,0,0.00
2013-11-18,77,67,60,67,62,58,96,85,69,30.09,29.93,4,0,4,0.00
2013-11-19,73,62,52,59,51,44,89,68,43,30.14,30.00,5,0,5,0.00
2013-11-20,73,65,57,66,58,50,92,78,63,30.01,29.89,4,0,4,0.00
2013-11-21,82,74,69,71,69,66,94,86,66,30.04,29.92,4,0,4,0.00
2013-11-22,72,47,37,70,44,33,94,88,80,30.37,30.03,10,1,10,0.00
2013-11-23,43,40,38,39,36,33,90,84,77,30.43,30.34,1,0,10,0.00
2013-11-24,43,40,35,39,35,30,91,83,64,30.46,30.31,1,0,9,0.00
2013-11-25,40,38,35,39,36,33,95,94,89,30.31,30.07,1,0,8,0.00
2013-11-26,52,43,39,37,34,29,89,71,52,30.35,30.09,2,0,8,0.00
2013-11-27,40,37,34,29,28,26,75,70,62,30.44,30.35,0,0,3,0.00
2013-11-29,34,34,34,26,26,26,73,73,73,30.44,30.44,0,0,0,0.00
2013-11-30,34,34,34,26,26,26,73,73,73,30.44,30.44,0,0,0,0.00
2013-12-1,61,38,34,57,31,26,93,76,73,30.44,29.96,0,0,0,0.00
2013-12-2,80,62,52,60,54,50,96,79,38,29.95,29.66,1,0,6,0.00
2013-12-3,86,62,48,62,49,38,96,72,19,29.68,29.56,6,0,6,0.00
2013-12-4,76,62,51,67,58,50,96,88,62,29.75,29.63,4,0,4,0.00
2013-12-5,67,48,35,66,42,27,96,80,63,30.04,29.73,10,0,10,0.00
2013-12-6,41,35,30,33,29,24,92,80,66,30.41,30.02,2,0,8,0.00
2013-12-7,33,30,27,26,23,19,87,73,64,30.44,30.28,5,0,7,0.00
2013-12-8,48,37,29,40,31,26,88,80,65,30.28,30.02,4,0,4,0.00
2013-12-9,43,40,36,40,38,31,95,92,84,30.34,30.05,1,0,9,0.00
2013-12-10,50,37,29,32,24,19,88,63,30,30.50,30.33,6,0,6,0.00
2013-12-11,61,43,28,33,28,20,89,61,22,30.51,30.32,4,0,4,0.00
2013-12-12,52,42,34,36,32,28,80,67,47,30.58,30.29,6,0,6,0.00
2013-12-13,51,47,43,50,42,35,96,82,64,30.29,29.87,5,0,5,0.00
2013-12-14,56,48,40,50,40,29,97,75,53,30.30,29.87,8,0,8,0.00
2013-12-15,62,44,28,34,29,24,89,61,25,30.39,30.25,5,0,5,0.00
2013-12-16,67,39,28,37,29,26,95,74,22,30.31,30.18,2,0,7,0.00
2013-12-17,72,50,31,47,37,29,95,66,24,30.31,30.19,5,0,5,0.00
2013-12-18,72,52,34,53,43,32,96,75,40,30.27,30.03,6,0,8,0.00
2013-12-19,76,65,54,61,57,50,91,77,53,30.03,29.75,11,1,11,0.00
2013-12-20,74,68,63,66,63,60,91,84,69,29.79,29.58,7,0,7,0.00
2013-12-21,73,62,45,66,54,35,94,79,28,29.79,29.46,8,0,8,0.00
2013-12-22,58,48,37,44,38,30,92,72,49,30.34,29.80,6,0,6,0.00
2013-12-23,40,35,0,31,29,0,87,79,67,30.52,30.34,3,0,3,0.00
2013-12-24,60,43,28,40,29,16,94,65,18,30.53,30.25,7,0,7,0.00
2013-12-25,57,47,37,46,42,35,95,82,64,30.35,30.21,4,0,4,0.00
2013-12-26,52,47,43,45,39,35,89,73,58,30.41,30.29,8,0,8,0.00
2013-12-27,58,49,42,47,43,39,94,82,55,30.41,30.29,4,0,4,0.00
2013-12-28,57,48,40,45,41,33,94,79,44,30.29,30.00,4,0,4,0.00
2013-12-29,65,48,36,50,41,30,96,79,54,30.24,29.96,10,0,10,0.00
2013-12-30,43,38,36,30,27,24,77,64,50,30.39,30.20,8,0,8,0.00
2013-12-31,50,42,35,32,28,24,78,59,38,30.45,30.24,4,0,4,0.00
2014-1-1,59,49,37,48,40,31,90,73,57,30.24,29.99,6,0,6,0.00
2014-1-2,53,43,29,46,29,23,95,60,32,30.44,30.07,11,1,11,0.00